sensor_id;sensor_type;location;lat;lon;timestamp;P1;P2;P0
55076;PMS7003;40971;44.702;11.030;2023-04-08T00:07:58;63.00;54.00;36.00
55076;PMS7003;40971;44.702;11.030;2023-04-08T00:18:00;63.67;55.00;39.00
55076;PMS7003;40971;44.702;11.030;2023-04-08T00:28:02;62.00;54.00;36.00
55076;PMS7003;40971;44.702;11.030;2023-04-08T00:48:45;70.00;58.67;36.33
55076;PMS7003;40971;44.702;11.030;2023-04-08T00:58:48;55.67;51.33;33.33
55076;PMS7003;40971;44.702;11.030;2023-04-08T01:08:51;59.50;53.00;35.00
55076;PMS7003;40971;44.702;11.030;2023-04-08T01:18:54;66.00;54.00;34.00
55076;PMS7003;40971;44.702;11.030;2023-04-08T01:28:58;55.00;47.50;33.50
55076;PMS7003;40971;44.702;11.030;2023-04-08T01:39:04;61.56;51.78;34.00
55076;PMS7003;40971;44.702;11.030;2023-04-08T01:49:10;59.33;51.00;34.33
55076;PMS7003;40971;44.702;11.030;2023-04-08T01:59:13;65.00;53.00;34.00
55076;PMS7003;40971;44.702;11.030;2023-04-08T02:09:18;63.67;54.00;34.00
55076;PMS7003;40971;44.702;11.030;2023-04-08T02:30:04;52.00;49.00;33.33
55076;PMS7003;40971;44.702;11.030;2023-04-08T02:50:25;51.67;46.67;30.00
55076;PMS7003;40971;44.702;11.030;2023-04-08T03:11:10;60.67;51.00;34.67
55076;PMS7003;40971;44.702;11.030;2023-04-08T03:21:16;57.67;51.00;33.67
55076;PMS7003;40971;44.702;11.030;2023-04-08T03:31:19;58.00;51.67;34.67
55076;PMS7003;40971;44.702;11.030;2023-04-08T03:41:22;61.67;52.00;34.67
55076;PMS7003;40971;44.702;11.030;2023-04-08T03:51:24;58.50;53.00;36.00
55076;PMS7003;40971;44.702;11.030;2023-04-08T04:01:45;56.00;45.67;30.67
55076;PMS7003;40971;44.702;11.030;2023-04-08T04:11:48;62.00;52.00;33.00
55076;PMS7003;40971;44.702;11.030;2023-04-08T04:21:53;52.11;48.22;31.67
55076;PMS7003;40971;44.702;11.030;2023-04-08T04:31:55;51.00;45.00;30.50
55076;PMS7003;40971;44.702;11.030;2023-04-08T04:41:57;54.00;46.00;33.00
55076;PMS7003;40971;44.702;11.030;2023-04-08T04:52:00;51.67;48.00;30.67
55076;PMS7003;40971;44.702;11.030;2023-04-08T05:02:02;47.00;41.83;29.67
55076;PMS7003;40971;44.702;11.030;2023-04-08T05:12:06;49.00;45.67;30.00
55076;PMS7003;40971;44.702;11.030;2023-04-08T05:22:07;44.00;43.00;30.00
55076;PMS7003;40971;44.702;11.030;2023-04-08T05:42:31;54.67;47.00;30.33
55076;PMS7003;40971;44.702;11.030;2023-04-08T05:52:35;34.63;33.88;25.88
55076;PMS7003;40971;44.702;11.030;2023-04-08T06:02:36;44.00;44.00;31.00
55076;PMS7003;40971;44.702;11.030;2023-04-08T06:12:58;46.00;45.00;30.33
55076;PMS7003;40971;44.702;11.030;2023-04-08T06:23:00;47.00;45.50;30.00
55076;PMS7003;40971;44.702;11.030;2023-04-08T06:33:02;55.00;48.33;34.00
55076;PMS7003;40971;44.702;11.030;2023-04-08T06:43:03;55.00;49.00;34.00
55076;PMS7003;40971;44.702;11.030;2023-04-08T06:53:08;59.67;52.00;34.00
55076;PMS7003;40971;44.702;11.030;2023-04-08T07:13:32;59.00;51.67;35.33
55076;PMS7003;40971;44.702;11.030;2023-04-08T07:33:58;63.00;54.00;33.50
55076;PMS7003;40971;44.702;11.030;2023-04-08T07:44:03;64.22;52.67;35.33
55076;PMS7003;40971;44.702;11.030;2023-04-08T07:54:05;68.67;55.33;37.00
55076;PMS7003;40971;44.702;11.030;2023-04-08T08:04:07;64.67;55.33;36.00
55076;PMS7003;40971;44.702;11.030;2023-04-08T08:14:10;56.67;49.00;33.00
55076;PMS7003;40971;44.702;11.030;2023-04-08T08:24:14;58.33;48.33;33.00
55076;PMS7003;40971;44.702;11.030;2023-04-08T08:34:17;51.25;45.00;31.00
55076;PMS7003;40971;44.702;11.030;2023-04-08T08:44:19;55.33;47.00;30.00
55076;PMS7003;40971;44.702;11.030;2023-04-08T08:54:23;38.88;35.88;25.13
55076;PMS7003;40971;44.702;11.030;2023-04-08T09:04:26;45.00;39.67;26.33
55076;PMS7003;40971;44.702;11.030;2023-04-08T09:14:47;39.33;38.67;26.67
55076;PMS7003;40971;44.702;11.030;2023-04-08T09:24:50;38.75;37.00;22.00
55076;PMS7003;40971;44.702;11.030;2023-04-08T09:34:53;40.33;38.33;28.00
55076;PMS7003;40971;44.702;11.030;2023-04-08T09:55:35;36.00;34.33;24.00
55076;PMS7003;40971;44.702;11.030;2023-04-08T10:05:39;36.33;35.00;25.00
55076;PMS7003;40971;44.702;11.030;2023-04-08T10:36:43;36.33;34.00;25.33
55076;PMS7003;40971;44.702;11.030;2023-04-08T10:46:46;37.00;33.33;23.67
55076;PMS7003;40971;44.702;11.030;2023-04-08T10:56:51;33.67;32.00;22.33
55076;PMS7003;40971;44.702;11.030;2023-04-08T11:06:54;33.00;31.67;22.00
55076;PMS7003;40971;44.702;11.030;2023-04-08T11:16:58;30.38;27.50;22.00
55076;PMS7003;40971;44.702;11.030;2023-04-08T11:27:03;22.33;22.33;16.33
55076;PMS7003;40971;44.702;11.030;2023-04-08T11:37:06;26.00;25.50;20.50
55076;PMS7003;40971;44.702;11.030;2023-04-08T11:47:08;25.50;24.50;18.50
55076;PMS7003;40971;44.702;11.030;2023-04-08T11:57:09;26.00;25.00;19.00
55076;PMS7003;40971;44.702;11.030;2023-04-08T12:07:11;20.00;20.00;15.50
55076;PMS7003;40971;44.702;11.030;2023-04-08T12:17:15;27.75;26.88;20.00
55076;PMS7003;40971;44.702;11.030;2023-04-08T12:27:17;20.00;20.00;16.50
55076;PMS7003;40971;44.702;11.030;2023-04-08T12:37:21;20.75;20.63;16.13
55076;PMS7003;40971;44.702;11.030;2023-04-08T12:47:41;16.00;16.00;12.00
55076;PMS7003;40971;44.702;11.030;2023-04-08T12:57:43;21.67;20.67;16.00
55076;PMS7003;40971;44.702;11.030;2023-04-08T13:07:45;23.50;23.00;14.50
55076;PMS7003;40971;44.702;11.030;2023-04-08T13:17:47;14.33;14.33;12.00
55076;PMS7003;40971;44.702;11.030;2023-04-08T13:27:50;17.71;17.43;13.71
55076;PMS7003;40971;44.702;11.030;2023-04-08T13:37:51;14.00;14.00;10.67
55076;PMS7003;40971;44.702;11.030;2023-04-08T13:47:53;16.00;13.33;10.33
55076;PMS7003;40971;44.702;11.030;2023-04-08T13:57:55;15.80;15.80;13.00
55076;PMS7003;40971;44.702;11.030;2023-04-08T14:07:56;13.33;13.33;10.00
55076;PMS7003;40971;44.702;11.030;2023-04-08T14:17:57;22.00;20.00;14.33
55076;PMS7003;40971;44.702;11.030;2023-04-08T14:28:00;11.50;11.50;7.00
55076;PMS7003;40971;44.702;11.030;2023-04-08T14:38:01;12.67;12.67;10.33
55076;PMS7003;40971;44.702;11.030;2023-04-08T14:48:02;15.33;15.33;11.00
55076;PMS7003;40971;44.702;11.030;2023-04-08T14:58:04;15.00;15.00;11.00
55076;PMS7003;40971;44.702;11.030;2023-04-08T15:08:05;15.00;15.00;12.00
55076;PMS7003;40971;44.702;11.030;2023-04-08T15:18:07;19.00;19.00;14.67
55076;PMS7003;40971;44.702;11.030;2023-04-08T15:28:09;18.20;18.20;12.00
55076;PMS7003;40971;44.702;11.030;2023-04-08T15:38:11;19.67;19.67;15.33
55076;PMS7003;40971;44.702;11.030;2023-04-08T15:48:12;18.00;18.00;12.60
55076;PMS7003;40971;44.702;11.030;2023-04-08T15:58:16;18.63;17.63;13.25
55076;PMS7003;40971;44.702;11.030;2023-04-08T16:08:19;14.60;14.60;11.80
55076;PMS7003;40971;44.702;11.030;2023-04-08T16:18:22;12.67;11.50;7.67
55076;PMS7003;40971;44.702;11.030;2023-04-08T16:28:26;12.86;12.86;10.43
55076;PMS7003;40971;44.702;11.030;2023-04-08T16:38:47;18.00;18.00;14.67
55076;PMS7003;40971;44.702;11.030;2023-04-08T16:48:48;13.33;13.00;10.33
55076;PMS7003;40971;44.702;11.030;2023-04-08T16:58:50;18.00;18.00;14.00
55076;PMS7003;40971;44.702;11.030;2023-04-08T17:08:53;16.29;16.29;13.14
55076;PMS7003;40971;44.702;11.030;2023-04-08T17:18:54;19.00;16.50;13.50
55076;PMS7003;40971;44.702;11.030;2023-04-08T17:28:58;18.63;18.63;15.25
55076;PMS7003;40971;44.702;11.030;2023-04-08T17:39:19;24.00;24.00;17.00
55076;PMS7003;40971;44.702;11.030;2023-04-08T17:49:23;26.50;23.13;18.13
55076;PMS7003;40971;44.702;11.030;2023-04-08T17:59:26;21.33;20.00;16.00
55076;PMS7003;40971;44.702;11.030;2023-04-08T18:09:27;19.40;17.40;12.40
55076;PMS7003;40971;44.702;11.030;2023-04-08T18:19:28;23.00;22.33;17.00
55076;PMS7003;40971;44.702;11.030;2023-04-08T18:29:30;22.00;21.00;16.33
55076;PMS7003;40971;44.702;11.030;2023-04-08T18:39:31;22.00;21.00;15.33
55076;PMS7003;40971;44.702;11.030;2023-04-08T18:49:35;17.14;17.14;12.14
55076;PMS7003;40971;44.702;11.030;2023-04-08T18:59:40;17.33;17.33;14.00
55076;PMS7003;40971;44.702;11.030;2023-04-08T19:09:44;16.86;16.86;11.14
55076;PMS7003;40971;44.702;11.030;2023-04-08T19:20:05;17.67;17.67;13.00
55076;PMS7003;40971;44.702;11.030;2023-04-08T19:30:09;16.71;16.14;13.71
55076;PMS7003;40971;44.702;11.030;2023-04-08T19:40:11;21.00;19.33;13.00
55076;PMS7003;40971;44.702;11.030;2023-04-08T19:50:32;18.67;18.67;14.33
55076;PMS7003;40971;44.702;11.030;2023-04-08T20:00:37;22.67;22.67;17.00
55076;PMS7003;40971;44.702;11.030;2023-04-08T20:10:40;23.00;19.67;15.33
55076;PMS7003;40971;44.702;11.030;2023-04-08T20:20:42;24.60;22.00;18.20
55076;PMS7003;40971;44.702;11.030;2023-04-08T20:30:46;29.00;27.67;19.33
55076;PMS7003;40971;44.702;11.030;2023-04-08T20:40:48;19.67;19.67;16.00
55076;PMS7003;40971;44.702;11.030;2023-04-08T20:50:49;25.33;23.33;16.00
55076;PMS7003;40971;44.702;11.030;2023-04-08T21:00:51;23.67;23.33;16.00
55076;PMS7003;40971;44.702;11.030;2023-04-08T21:10:54;28.14;28.14;20.86
55076;PMS7003;40971;44.702;11.030;2023-04-08T21:20:55;24.40;24.00;18.60
55076;PMS7003;40971;44.702;11.030;2023-04-08T21:31:05;25.67;25.67;18.67
55076;PMS7003;40971;44.702;11.030;2023-04-08T21:41:27;31.33;28.00;22.00
55076;PMS7003;40971;44.702;11.030;2023-04-08T21:51:31;34.75;33.38;23.00
55076;PMS7003;40971;44.702;11.030;2023-04-08T22:01:35;29.25;27.00;18.88
55076;PMS7003;40971;44.702;11.030;2023-04-08T22:11:37;27.67;27.00;20.33
55076;PMS7003;40971;44.702;11.030;2023-04-08T22:21:39;31.20;30.20;18.80
55076;PMS7003;40971;44.702;11.030;2023-04-08T22:31:42;24.80;22.80;15.40
55076;PMS7003;40971;44.702;11.030;2023-04-08T22:42:02;28.60;27.60;19.60
55076;PMS7003;40971;44.702;11.030;2023-04-08T22:52:03;22.00;21.00;18.00
55076;PMS7003;40971;44.702;11.030;2023-04-08T23:02:24;33.67;32.67;21.00
55076;PMS7003;40971;44.702;11.030;2023-04-08T23:12:25;29.20;28.00;20.60
55076;PMS7003;40971;44.702;11.030;2023-04-08T23:22:28;31.20;29.20;21.20
55076;PMS7003;40971;44.702;11.030;2023-04-08T23:32:30;29.33;29.33;21.00
55076;PMS7003;40971;44.702;11.030;2023-04-08T23:42:35;30.33;25.67;18.67
55076;PMS7003;40971;44.702;11.030;2023-04-08T23:52:36;30.67;29.33;18.00
